CDT,Max TemperatureF,Mean TemperatureF,Min TemperatureF,Max Dew PointF,MeanDew PointF,Min DewpointF,Max Humidity, Mean Humidity, Min Humidity, Max Sea Level PressureIn, Mean Sea Level PressureIn, Min Sea Level PressureIn, Max VisibilityMiles, Mean VisibilityMiles, Min VisibilityMiles, Max Wind SpeedMPH, Mean Wind SpeedMPH, Max Gust SpeedMPH,PrecipitationIn, CloudCover, Events, WindDirDegrees
2013-3-1,24,17,9,20,15,6,88,78,68,30.40,30.31,30.17,10,9,5,16,11,20,T,7,Snow,354
2013-3-2,26,15,3,19,12,1,96,80,63,30.38,30.31,30.19,10,9,7,12,6,14,0.00,2,,244
2013-3-3,31,25,19,24,20,16,92,81,69,30.13,29.97,29.85,10,7,1,26,17,32,0.01,4,Snow,136
2013-3-4,29,27,24,27,24,21,100,94,88,30.01,29.87,29.76,5,2,1,24,15,33,0.06,8,Rain-Snow,135
2013-3-5,29,22,14,27,21,12,96,89,81,30.35,30.09,29.92,10,6,1,29,18,36,0.01,7,Snow,321
2013-3-6,25,22,19,18,17,15,91,83,74,30.47,30.39,30.30,10,10,9,23,8,28,0.00,8,,349
2013-3-7,28,18,7,22,13,6,100,88,75,30.37,30.31,30.26,10,4,0,23,12,28,0.00,2,Fog,136
2013-3-8,35,26,16,32,25,14,92,87,82,30.29,30.18,30.00,6,4,2,23,13,28,0.20,2,Rain,145
2013-3-9,38,35,32,37,34,30,100,95,89,29.99,29.79,29.63,10,3,0,22,15,28,0.71,8,Fog-Rain-Snow,150
2013-3-10,33,28,23,31,25,19,92,88,84,29.93,29.86,29.75,7,3,0,33,26,40,0.05,8,Fog-Rain-Snow,351
2013-3-11,28,25,21,21,19,16,92,80,68,29.94,29.86,29.79,10,8,1,26,16,33,0.00,7,,328
2013-3-12,29,24,19,25,19,14,81,75,68,30.29,30.05,29.88,10,6,1,30,20,37,T,7,Snow,313
2013-3-13,28,21,13,19,15,10,88,76,63,30.45,30.37,30.27,10,10,9,18,9,22,0.00,0,,257
2013-3-14,44,34,23,36,28,19,89,77,65,30.23,30.11,30.04,10,8,4,17,8,21,0.00,2,,178
2013-3-15,38,35,32,34,33,30,100,93,85,30.01,29.87,29.75,7,3,1,15,8,18,T,7,Rain,14
2013-3-16,32,24,16,31,21,10,100,86,71,30.27,30.07,29.84,10,8,2,24,16,30,0.00,7,,347
2013-3-17,31,22,12,27,16,6,85,74,63,30.28,30.07,29.83,10,10,5,31,18,38,0.00,4,,112
2013-3-18,33,23,12,30,18,4,92,77,61,30.01,29.77,29.62,10,7,1,38,24,46,0.01,7,Snow,258
2013-3-19,29,19,8,19,9,1,73,63,52,30.33,30.20,30.01,10,10,2,24,16,32,T,4,Snow,321
2013-3-20,23,16,8,10,5,2,73,61,49,30.38,30.30,30.20,10,10,6,30,17,35,T,1,Snow,324
2013-3-21,27,17,6,14,8,2,80,67,54,30.18,30.11,30.05,10,10,10,14,5,17,0.00,0,,53
2013-3-22,30,22,13,19,15,11,88,73,58,30.12,30.09,30.07,10,10,9,9,4,13,0.00,2,,85
2013-3-23,32,28,23,21,18,15,88,71,53,30.19,30.15,30.09,10,10,7,17,9,21,0.00,6,,3
2013-3-24,30,26,22,25,22,16,92,80,68,30.13,30.02,29.95,10,4,1,23,17,26,T,8,Snow,343
2013-3-25,34,28,22,25,21,16,88,75,61,30.33,30.15,30.02,10,8,2,23,18,29,T,4,Snow,341
2013-3-26,37,27,17,24,18,13,84,66,47,30.36,30.32,30.29,10,10,10,16,7,21,0.00,1,,268
2013-3-27,40,32,23,28,25,21,88,74,59,30.35,30.32,30.29,10,10,8,13,7,16,0.00,0,,135
2013-3-28,48,37,26,37,31,23,96,81,65,30.33,30.29,30.25,10,9,6,15,9,18,0.00,2,,142
2013-3-29,56,44,31,42,36,30,92,74,55,30.27,30.19,30.05,10,8,4,22,13,26,0.00,3,,168
2013-3-30,59,46,33,46,40,33,92,72,51,30.02,29.93,29.89,10,8,2,23,13,31,0.00,2,,292
2013-3-31,40,31,22,34,27,15,96,72,47,30.18,29.97,29.88,10,6,0,30,19,38,0.00,4,Fog,318